Pililaau — NBWY — position and weather

sailwx.info

Track history (hours):
 
Tides and Currents Weather Stations Pressure Air Temp Water Temp Dewpoint Dewpoint Depression Visibility Wind Speed Wind Dir Waves Ship Positions

Pililaau

Last reported at 2016-Jun-27 14:33 UTC. Time now 2016-Jun-28 22:28 UTC.
Position N 36°58' W 076°25'.

Type: Cargo ship. MMSI: 338806000.

Date/timePositionNaut miles runAvg speedWind from/ knotsBaromVisibWave heightAir tempDewpointWater temp
2016-Jun-27 14:33N 36°58' W 076°25'0 0.0
2016-Jun-27 13:33N 36°58' W 076°25'0 0.0
2016-Jun-27 12:33N 36°58' W 076°25'0 0.0
2016-Jun-27 11:33N 36°58' W 076°25'0 0.0
2016-Jun-27 10:31N 36°58' W 076°25'0 0.0
2016-Jun-27 09:33N 36°58' W 076°25'0 0.0
2016-Jun-27 08:33N 36°58' W 076°25'0 0.0
2016-Jun-27 07:10N 36°58' W 076°25'0 0.0
2016-Jun-27 06:31N 36°58' W 076°25'0 0.0
2016-Jun-27 05:25N 36°58' W 076°25'0 0.0
2016-Jun-26 06:32N 36°58' W 076°25'0 0.0
2016-Jun-26 04:28N 36°58' W 076°25'0 0.0
2016-Jun-26 02:30N 36°58' W 076°25'1 0.0
2016-Jun-25 14:06N 36°57' W 076°25'6 8.3
2016-Jun-25 13:22N 36°60' W 076°18'1012.1
2016-Jun-25 12:33N 36°58' W 076°06'2 2.0
2016-Jun-25 11:31N 36°57' W 076°04'0 0.1
2016-Jun-25 10:33N 36°57' W 076°04'0 0.1
2016-Jun-25 09:29N 36°57' W 076°04'0 0.1
2016-Jun-25 07:31N 36°57' W 076°04'0 0.0
2016-Jun-25 05:32N 36°57' W 076°04'0 0.0
2016-Jun-25 04:33N 36°57' W 076°04'0 0.0
2016-Jun-25 03:31N 36°57' W 076°04'0 0.0
2016-Jun-25 02:29N 36°57' W 076°04'0 0.2
2016-Jun-25 01:24N 36°57' W 076°04'0 0.1
2016-Jun-25 00:29N 36°57' W 076°04'0 0.0
2016-Jun-24 23:30N 36°57' W 076°04'0 0.0
2016-Jun-24 22:30N 36°57' W 076°04'0 0.0
2016-Jun-24 21:25N 36°57' W 076°04'0 0.1
2016-Jun-24 20:22N 36°57' W 076°04'0 0.3
2016-Jun-24 19:33N 36°57' W 076°04'0 0.1
2016-Jun-24 18:33N 36°57' W 076°04'7 7.5
2016-Jun-24 17:33N 36°55' W 075°55'1110.6
2016-Jun-24 16:33N 36°49' W 075°44'  
2016-Jun-22 10:33N 38°33' W 074°50'1413.8
2016-Jun-22 09:33N 38°44' W 074°60'1312.4
2016-Jun-22 08:31N 38°56' W 075°06'1717.4
2016-Jun-22 07:33N 39°11' W 075°16'1919.0
2016-Jun-22 06:33N 39°26' W 075°32'1514.7
2016-Jun-22 05:33N 39°40' W 075°31'10 9.3
2016-Jun-22 04:32N 39°48' W 075°24'0 0.5
2016-Jun-22 03:31N 39°49' W 075°24'0 0.0
2016-Jun-22 02:31N 39°49' W 075°24'0 0.2
2016-Jun-22 01:32N 39°48' W 075°24'0 0.0
2016-Jun-22 00:30N 39°48' W 075°24'0 0.0
2016-Jun-21 23:28N 39°48' W 075°24'0 0.0
2016-Jun-21 22:30N 39°48' W 075°24'0 0.1
2016-Jun-21 21:31N 39°48' W 075°24'0 0.2
2016-Jun-21 20:32N 39°49' W 075°24'0 0.2
2016-Jun-21 19:32N 39°49' W 075°24'0 0.5
2016-Jun-21 18:33N 39°49' W 075°23'8 8.2
2016-Jun-21 17:33N 39°52' W 075°14'2 2.5
2016-Jun-21 16:34N 39°53' W 075°11'0 0.0
2016-Jun-21 15:33N 39°53' W 075°11'0 0.0
2016-Jun-21 14:33N 39°53' W 075°11'0 0.0
2016-Jun-21 13:33N 39°53' W 075°11'0 0.0
2016-Jun-21 12:33N 39°53' W 075°11'0 0.0
2016-Jun-21 11:33N 39°53' W 075°11'0 0.0
2016-Jun-21 10:33N 39°53' W 075°11'0 0.0
2016-Jun-21 09:33N 39°53' W 075°11'0 0.0
2016-Jun-21 08:33N 39°53' W 075°11'0 0.0
2016-Jun-21 07:33N 39°53' W 075°11'0 0.0
2016-Jun-21 04:32N 39°53' W 075°11'0 0.0
2016-Jun-21 03:32N 39°53' W 075°11'0 0.0
2016-Jun-21 02:33N 39°53' W 075°11'0 0.0
2016-Jun-21 01:32N 39°53' W 075°11'0 0.0
2016-Jun-21 00:33N 39°53' W 075°11'0 0.0
2016-Jun-20 23:33N 39°53' W 075°11'0 0.0
2016-Jun-20 22:33N 39°53' W 075°11'0 0.0
2016-Jun-20 21:33N 39°53' W 075°11'0 0.0
2016-Jun-20 20:33N 39°53' W 075°11'0 0.0
2016-Jun-20 19:33N 39°53' W 075°11'0 0.0
2016-Jun-20 18:32N 39°53' W 075°11'0 0.0
2016-Jun-20 17:32N 39°53' W 075°11'0 0.0
2016-Jun-20 16:33N 39°53' W 075°11'0 0.0
2016-Jun-20 15:33N 39°53' W 075°11'0 0.0
2016-Jun-20 14:33N 39°53' W 075°11'0 0.0
2016-Jun-20 13:33N 39°53' W 075°11'0 0.0
2016-Jun-20 12:32N 39°53' W 075°11'0 0.0
2016-Jun-20 11:34N 39°53' W 075°11'0 0.0
2016-Jun-20 10:33N 39°53' W 075°11'0 0.0
2016-Jun-20 09:33N 39°53' W 075°11'0 0.0
2016-Jun-20 08:33N 39°53' W 075°11'0 0.0
2016-Jun-20 07:33N 39°53' W 075°11'0 0.0
2016-Jun-20 06:33N 39°53' W 075°11'0 0.0
2016-Jun-20 05:33N 39°53' W 075°11'0 0.0
2016-Jun-20 04:33N 39°53' W 075°11'0 0.0
2016-Jun-20 03:33N 39°53' W 075°11'0 0.0
2016-Jun-20 02:33N 39°53' W 075°11'0 0.0
2016-Jun-20 01:33N 39°53' W 075°11'0 0.0
2016-Jun-20 00:33N 39°53' W 075°11'0 0.0
2016-Jun-19 23:33N 39°53' W 075°11'0 0.0
2016-Jun-19 22:32N 39°53' W 075°11'0 0.0
2016-Jun-19 21:33N 39°53' W 075°11'0 0.0
2016-Jun-19 20:33N 39°53' W 075°11'0 0.0
2016-Jun-19 19:33N 39°53' W 075°11'0 0.0
2016-Jun-19 18:32N 39°53' W 075°11'0 0.0
2016-Jun-19 17:33N 39°53' W 075°11'0 0.0
2016-Jun-19 16:33N 39°53' W 075°11'0 0.0
2016-Jun-19 15:33N 39°53' W 075°11'0 0.0
2016-Jun-19 14:33N 39°53' W 075°11'0 0.0
2016-Jun-19 13:33N 39°53' W 075°11'0 0.0
2016-Jun-19 12:33N 39°53' W 075°11'0 0.0
2016-Jun-19 11:33N 39°53' W 075°11'0 0.0
2016-Jun-19 10:33N 39°53' W 075°11'0 0.0
2016-Jun-19 09:33N 39°53' W 075°11'0 0.0
2016-Jun-19 08:33N 39°53' W 075°11'0 0.0
2016-Jun-19 07:33N 39°53' W 075°11'0 0.0
2016-Jun-19 06:33N 39°53' W 075°11'0 0.0
2016-Jun-19 05:33N 39°53' W 075°11'0 0.0
2016-Jun-19 04:33N 39°53' W 075°11'0 0.0
2016-Jun-19 03:33N 39°53' W 075°11'0 0.0
2016-Jun-19 02:34N 39°53' W 075°11'0 0.0
2016-Jun-19 01:33N 39°53' W 075°11'0 0.0
2016-Jun-19 00:33N 39°53' W 075°11'0 0.0
2016-Jun-18 23:33N 39°53' W 075°11'0 0.0
2016-Jun-18 22:33N 39°53' W 075°11'0 0.0
2016-Jun-18 21:34N 39°53' W 075°11'0 0.0
2016-Jun-18 20:34N 39°53' W 075°11'0 0.0
2016-Jun-18 19:33N 39°53' W 075°11'0 0.0
2016-Jun-18 18:33N 39°53' W 075°11'0 0.0
2016-Jun-18 17:33N 39°53' W 075°11'0 0.0
2016-Jun-18 16:33N 39°53' W 075°11'0 0.0
2016-Jun-18 15:33N 39°53' W 075°11'0 0.0
2016-Jun-18 14:33N 39°53' W 075°11'0 0.0
2016-Jun-18 13:33N 39°53' W 075°11'0 0.0
2016-Jun-18 12:33N 39°53' W 075°11'0 0.0
2016-Jun-18 11:33N 39°53' W 075°11'0 0.0
2016-Jun-18 10:33N 39°53' W 075°11'0 0.0
2016-Jun-18 09:33N 39°53' W 075°11'0 0.0
2016-Jun-18 08:33N 39°53' W 075°11'0 0.0
2016-Jun-18 07:33N 39°53' W 075°11'0 0.0
2016-Jun-18 06:33N 39°53' W 075°11'0 0.0
2016-Jun-18 05:34N 39°53' W 075°11'0 0.0
2016-Jun-18 04:34N 39°53' W 075°11'0 0.0
2016-Jun-18 03:33N 39°53' W 075°11'0 0.0
2016-Jun-18 02:33N 39°53' W 075°11'0 0.0
2016-Jun-18 01:33N 39°53' W 075°11'0 0.0
2016-Jun-18 00:33N 39°53' W 075°11'0 0.0
2016-Jun-17 23:33N 39°53' W 075°11'0 0.0
2016-Jun-17 22:33N 39°53' W 075°11'0 0.0
2016-Jun-17 21:33N 39°53' W 075°11'0 0.0
2016-Jun-17 20:33N 39°53' W 075°11'0 0.0
2016-Jun-17 19:33N 39°53' W 075°11'0 0.0
2016-Jun-17 18:33N 39°53' W 075°11'0 0.0
2016-Jun-17 17:33N 39°53' W 075°11'0 0.0
2016-Jun-17 16:33N 39°53' W 075°11'0 0.0
2016-Jun-17 15:33N 39°53' W 075°11'0 0.0
2016-Jun-17 14:34N 39°53' W 075°11'  
Track history (hours):
 
Tides and Currents Weather Stations Pressure Air Temp Water Temp Dewpoint Dewpoint Depression Visibility Wind Speed Wind Dir Waves Ship Positions

Pililaau

Last reported at 2016-Jun-27 14:33 UTC. Time now 2016-Jun-28 22:28 UTC.
Position N 36°58' W 076°25'.

Type: Cargo ship. MMSI: 338806000.

Date/timePositionNaut miles runAvg speedWind from/ knotsBaromVisibWave heightAir tempDewpointWater temp
2016-Jun-27 14:33N 36°58' W 076°25'0 0.0
2016-Jun-27 13:33N 36°58' W 076°25'0 0.0
2016-Jun-27 12:33N 36°58' W 076°25'0 0.0
2016-Jun-27 11:33N 36°58' W 076°25'0 0.0
2016-Jun-27 10:31N 36°58' W 076°25'0 0.0
2016-Jun-27 09:33N 36°58' W 076°25'0 0.0
2016-Jun-27 08:33N 36°58' W 076°25'0 0.0
2016-Jun-27 07:10N 36°58' W 076°25'0 0.0
2016-Jun-27 06:31N 36°58' W 076°25'0 0.0
2016-Jun-27 05:25N 36°58' W 076°25'0 0.0
2016-Jun-26 06:32N 36°58' W 076°25'0 0.0
2016-Jun-26 04:28N 36°58' W 076°25'0 0.0
2016-Jun-26 02:30N 36°58' W 076°25'1 0.0
2016-Jun-25 14:06N 36°57' W 076°25'6 8.3
2016-Jun-25 13:22N 36°60' W 076°18'1012.1
2016-Jun-25 12:33N 36°58' W 076°06'2 2.0
2016-Jun-25 11:31N 36°57' W 076°04'0 0.1
2016-Jun-25 10:33N 36°57' W 076°04'0 0.1
2016-Jun-25 09:29N 36°57' W 076°04'0 0.1
2016-Jun-25 07:31N 36°57' W 076°04'0 0.0
2016-Jun-25 05:32N 36°57' W 076°04'0 0.0
2016-Jun-25 04:33N 36°57' W 076°04'0 0.0
2016-Jun-25 03:31N 36°57' W 076°04'0 0.0
2016-Jun-25 02:29N 36°57' W 076°04'0 0.2
2016-Jun-25 01:24N 36°57' W 076°04'0 0.1
2016-Jun-25 00:29N 36°57' W 076°04'0 0.0
2016-Jun-24 23:30N 36°57' W 076°04'0 0.0
2016-Jun-24 22:30N 36°57' W 076°04'0 0.0
2016-Jun-24 21:25N 36°57' W 076°04'0 0.1
2016-Jun-24 20:22N 36°57' W 076°04'0 0.3
2016-Jun-24 19:33N 36°57' W 076°04'0 0.1
2016-Jun-24 18:33N 36°57' W 076°04'7 7.5
2016-Jun-24 17:33N 36°55' W 075°55'1110.6
2016-Jun-24 16:33N 36°49' W 075°44'  
2016-Jun-22 10:33N 38°33' W 074°50'1413.8
2016-Jun-22 09:33N 38°44' W 074°60'1312.4
2016-Jun-22 08:31N 38°56' W 075°06'1717.4
2016-Jun-22 07:33N 39°11' W 075°16'1919.0
2016-Jun-22 06:33N 39°26' W 075°32'1514.7
2016-Jun-22 05:33N 39°40' W 075°31'10 9.3
2016-Jun-22 04:32N 39°48' W 075°24'0 0.5
2016-Jun-22 03:31N 39°49' W 075°24'0 0.0
2016-Jun-22 02:31N 39°49' W 075°24'0 0.2
2016-Jun-22 01:32N 39°48' W 075°24'0 0.0
2016-Jun-22 00:30N 39°48' W 075°24'0 0.0
2016-Jun-21 23:28N 39°48' W 075°24'0 0.0
2016-Jun-21 22:30N 39°48' W 075°24'0 0.1
2016-Jun-21 21:31N 39°48' W 075°24'0 0.2
2016-Jun-21 20:32N 39°49' W 075°24'0 0.2
2016-Jun-21 19:32N 39°49' W 075°24'0 0.5
2016-Jun-21 18:33N 39°49' W 075°23'8 8.2
2016-Jun-21 17:33N 39°52' W 075°14'2 2.5
2016-Jun-21 16:34N 39°53' W 075°11'0 0.0
2016-Jun-21 15:33N 39°53' W 075°11'0 0.0
2016-Jun-21 14:33N 39°53' W 075°11'0 0.0
2016-Jun-21 13:33N 39°53' W 075°11'0 0.0
2016-Jun-21 12:33N 39°53' W 075°11'0 0.0
2016-Jun-21 11:33N 39°53' W 075°11'0 0.0
2016-Jun-21 10:33N 39°53' W 075°11'0 0.0
2016-Jun-21 09:33N 39°53' W 075°11'0 0.0
2016-Jun-21 08:33N 39°53' W 075°11'0 0.0
2016-Jun-21 07:33N 39°53' W 075°11'0 0.0
2016-Jun-21 04:32N 39°53' W 075°11'0 0.0
2016-Jun-21 03:32N 39°53' W 075°11'0 0.0
2016-Jun-21 02:33N 39°53' W 075°11'0 0.0
2016-Jun-21 01:32N 39°53' W 075°11'0 0.0
2016-Jun-21 00:33N 39°53' W 075°11'0 0.0
2016-Jun-20 23:33N 39°53' W 075°11'0 0.0
2016-Jun-20 22:33N 39°53' W 075°11'0 0.0
2016-Jun-20 21:33N 39°53' W 075°11'0 0.0
2016-Jun-20 20:33N 39°53' W 075°11'0 0.0
2016-Jun-20 19:33N 39°53' W 075°11'0 0.0
2016-Jun-20 18:32N 39°53' W 075°11'0 0.0
2016-Jun-20 17:32N 39°53' W 075°11'0 0.0
2016-Jun-20 16:33N 39°53' W 075°11'0 0.0
2016-Jun-20 15:33N 39°53' W 075°11'0 0.0
2016-Jun-20 14:33N 39°53' W 075°11'0 0.0
2016-Jun-20 13:33N 39°53' W 075°11'0 0.0
2016-Jun-20 12:32N 39°53' W 075°11'0 0.0
2016-Jun-20 11:34N 39°53' W 075°11'0 0.0
2016-Jun-20 10:33N 39°53' W 075°11'0 0.0
2016-Jun-20 09:33N 39°53' W 075°11'0 0.0
2016-Jun-20 08:33N 39°53' W 075°11'0 0.0
2016-Jun-20 07:33N 39°53' W 075°11'0 0.0
2016-Jun-20 06:33N 39°53' W 075°11'0 0.0
2016-Jun-20 05:33N 39°53' W 075°11'0 0.0
2016-Jun-20 04:33N 39°53' W 075°11'0 0.0
2016-Jun-20 03:33N 39°53' W 075°11'0 0.0
2016-Jun-20 02:33N 39°53' W 075°11'0 0.0
2016-Jun-20 01:33N 39°53' W 075°11'0 0.0
2016-Jun-20 00:33N 39°53' W 075°11'0 0.0
2016-Jun-19 23:33N 39°53' W 075°11'0 0.0
2016-Jun-19 22:32N 39°53' W 075°11'0 0.0
2016-Jun-19 21:33N 39°53' W 075°11'0 0.0
2016-Jun-19 20:33N 39°53' W 075°11'0 0.0
2016-Jun-19 19:33N 39°53' W 075°11'0 0.0
2016-Jun-19 18:32N 39°53' W 075°11'0 0.0
2016-Jun-19 17:33N 39°53' W 075°11'0 0.0
2016-Jun-19 16:33N 39°53' W 075°11'0 0.0
2016-Jun-19 15:33N 39°53' W 075°11'0 0.0
2016-Jun-19 14:33N 39°53' W 075°11'0 0.0
2016-Jun-19 13:33N 39°53' W 075°11'0 0.0
2016-Jun-19 12:33N 39°53' W 075°11'0 0.0
2016-Jun-19 11:33N 39°53' W 075°11'0 0.0
2016-Jun-19 10:33N 39°53' W 075°11'0 0.0
2016-Jun-19 09:33N 39°53' W 075°11'0 0.0
2016-Jun-19 08:33N 39°53' W 075°11'0 0.0
2016-Jun-19 07:33N 39°53' W 075°11'0 0.0
2016-Jun-19 06:33N 39°53' W 075°11'0 0.0
2016-Jun-19 05:33N 39°53' W 075°11'0 0.0
2016-Jun-19 04:33N 39°53' W 075°11'0 0.0
2016-Jun-19 03:33N 39°53' W 075°11'0 0.0
2016-Jun-19 02:34N 39°53' W 075°11'0 0.0
2016-Jun-19 01:33N 39°53' W 075°11'0 0.0
2016-Jun-19 00:33N 39°53' W 075°11'0 0.0
2016-Jun-18 23:33N 39°53' W 075°11'0 0.0
2016-Jun-18 22:33N 39°53' W 075°11'0 0.0
2016-Jun-18 21:34N 39°53' W 075°11'0 0.0
2016-Jun-18 20:34N 39°53' W 075°11'0 0.0
2016-Jun-18 19:33N 39°53' W 075°11'0 0.0
2016-Jun-18 18:33N 39°53' W 075°11'0 0.0
2016-Jun-18 17:33N 39°53' W 075°11'0 0.0
2016-Jun-18 16:33N 39°53' W 075°11'0 0.0
2016-Jun-18 15:33N 39°53' W 075°11'0 0.0
2016-Jun-18 14:33N 39°53' W 075°11'0 0.0
2016-Jun-18 13:33N 39°53' W 075°11'0 0.0
2016-Jun-18 12:33N 39°53' W 075°11'0 0.0
2016-Jun-18 11:33N 39°53' W 075°11'0 0.0
2016-Jun-18 10:33N 39°53' W 075°11'0 0.0
2016-Jun-18 09:33N 39°53' W 075°11'0 0.0
2016-Jun-18 08:33N 39°53' W 075°11'0 0.0
2016-Jun-18 07:33N 39°53' W 075°11'0 0.0
2016-Jun-18 06:33N 39°53' W 075°11'0 0.0
2016-Jun-18 05:34N 39°53' W 075°11'0 0.0
2016-Jun-18 04:34N 39°53' W 075°11'0 0.0
2016-Jun-18 03:33N 39°53' W 075°11'0 0.0
2016-Jun-18 02:33N 39°53' W 075°11'0 0.0
2016-Jun-18 01:33N 39°53' W 075°11'0 0.0
2016-Jun-18 00:33N 39°53' W 075°11'0 0.0
2016-Jun-17 23:33N 39°53' W 075°11'0 0.0
2016-Jun-17 22:33N 39°53' W 075°11'0 0.0
2016-Jun-17 21:33N 39°53' W 075°11'0 0.0
2016-Jun-17 20:33N 39°53' W 075°11'0 0.0
2016-Jun-17 19:33N 39°53' W 075°11'0 0.0
2016-Jun-17 18:33N 39°53' W 075°11'0 0.0
2016-Jun-17 17:33N 39°53' W 075°11'0 0.0
2016-Jun-17 16:33N 39°53' W 075°11'0 0.0
2016-Jun-17 15:33N 39°53' W 075°11'0 0.0
2016-Jun-17 14:34N 39°53' W 075°11'  

Dump ship's entire track history